Keysville, Georgia
Current Conditions -  °F | °C
As of 6:53 PM on Monday 20 Oct 2014 (Local Time) from KAGS Reporting Station
Clear Clear  
Wind Chill: 65°   Ceiling: Unl
Heat Index: 65°   Visibility: 10mi
Dew Point: 51°   Wind: 0mph
Humidity: 61%   Direction: NA
Pressure: 29.98"   Gusts: NA
Location:  33.23°N, 82.23°W
Report Text: KAGS 202253Z 00000KT 10SM CLR 18/11 A2998 RMK AO2 SLP150 T01830106
Loading
Personal Weather Stations






























Interactive Weather Map New forecast layout! Learn more

10-Day Weather Forecast

Advertisements
Track Severe Weather on mobile